sensor_id;sensor_type;location;lat;lon;timestamp;pressure;altitude;pressure_sealevel;temperature;humidity
60832;BME280;46665;51.558;-0.448;2024-01-15T00:00:17;100488.66;;;-0.08;100.00
60832;BME280;46665;51.558;-0.448;2024-01-15T00:03:02;100472.25;;;-0.18;100.00
60832;BME280;46665;51.558;-0.448;2024-01-15T00:05:46;100481.34;;;-0.26;100.00
60832;BME280;46665;51.558;-0.448;2024-01-15T00:08:30;100490.16;;;-0.26;100.00
60832;BME280;46665;51.558;-0.448;2024-01-15T00:11:14;100482.19;;;-0.32;100.00
60832;BME280;46665;51.558;-0.448;2024-01-15T00:14:01;100480.78;;;-0.41;100.00
60832;BME280;46665;51.558;-0.448;2024-01-15T00:16:47;100466.44;;;-0.47;100.00
60832;BME280;46665;51.558;-0.448;2024-01-15T00:19:33;100470.38;;;-0.56;100.00
60832;BME280;46665;51.558;-0.448;2024-01-15T00:22:17;100469.56;;;-0.63;100.00
60832;BME280;46665;51.558;-0.448;2024-01-15T00:25:02;100464.66;;;-0.67;100.00
60832;BME280;46665;51.558;-0.448;2024-01-15T00:27:46;100468.97;;;-0.66;100.00
60832;BME280;46665;51.558;-0.448;2024-01-15T00:30:30;100461.78;;;-0.72;100.00
60832;BME280;46665;51.558;-0.448;2024-01-15T00:33:14;100464.69;;;-0.73;100.00
60832;BME280;46665;51.558;-0.448;2024-01-15T00:35:58;100458.31;;;-0.79;100.00
60832;BME280;46665;51.558;-0.448;2024-01-15T00:38:43;100446.19;;;-0.81;100.00
60832;BME280;46665;51.558;-0.448;2024-01-15T00:41:27;100455.88;;;-0.80;100.00
60832;BME280;46665;51.558;-0.448;2024-01-15T00:44:12;100451.34;;;-0.80;100.00
60832;BME280;46665;51.558;-0.448;2024-01-15T00:46:56;100465.53;;;-0.79;100.00
60832;BME280;46665;51.558;-0.448;2024-01-15T00:49:40;100455.66;;;-0.79;100.00
60832;BME280;46665;51.558;-0.448;2024-01-15T00:52:24;100435.50;;;-0.81;100.00
60832;BME280;46665;51.558;-0.448;2024-01-15T00:55:08;100447.03;;;-0.81;100.00
60832;BME280;46665;51.558;-0.448;2024-01-15T00:57:52;100437.59;;;-0.83;100.00
60832;BME280;46665;51.558;-0.448;2024-01-15T01:00:36;100428.75;;;-0.84;100.00
60832;BME280;46665;51.558;-0.448;2024-01-15T01:03:20;100415.81;;;-0.87;100.00
60832;BME280;46665;51.558;-0.448;2024-01-15T01:06:03;100422.81;;;-0.86;100.00
60832;BME280;46665;51.558;-0.448;2024-01-15T01:08:48;100422.41;;;-0.90;100.00
60832;BME280;46665;51.558;-0.448;2024-01-15T01:11:32;100420.78;;;-0.97;100.00
60832;BME280;46665;51.558;-0.448;2024-01-15T01:14:16;100413.59;;;-0.97;100.00
60832;BME280;46665;51.558;-0.448;2024-01-15T01:17:00;100412.56;;;-0.96;100.00
60832;BME280;46665;51.558;-0.448;2024-01-15T01:19:44;100406.38;;;-0.96;100.00
60832;BME280;46665;51.558;-0.448;2024-01-15T01:22:28;100410.72;;;-0.95;100.00
60832;BME280;46665;51.558;-0.448;2024-01-15T01:25:12;100413.38;;;-0.95;100.00
60832;BME280;46665;51.558;-0.448;2024-01-15T01:27:56;100412.56;;;-0.96;100.00
60832;BME280;46665;51.558;-0.448;2024-01-15T01:30:40;100412.97;;;-0.92;100.00
60832;BME280;46665;51.558;-0.448;2024-01-15T01:33:24;100409.66;;;-0.88;100.00
60832;BME280;46665;51.558;-0.448;2024-01-15T01:36:08;100421.16;;;-0.87;100.00
60832;BME280;46665;51.558;-0.448;2024-01-15T01:38:53;100416.84;;;-0.88;100.00
60832;BME280;46665;51.558;-0.448;2024-01-15T01:41:38;100413.16;;;-0.87;100.00
60832;BME280;46665;51.558;-0.448;2024-01-15T01:44:22;100415.63;;;-0.85;100.00
60832;BME280;46665;51.558;-0.448;2024-01-15T01:47:06;100411.50;;;-0.88;100.00
60832;BME280;46665;51.558;-0.448;2024-01-15T01:49:50;100418.28;;;-0.85;100.00
60832;BME280;46665;51.558;-0.448;2024-01-15T01:52:35;100416.63;;;-0.87;100.00
60832;BME280;46665;51.558;-0.448;2024-01-15T01:55:20;100407.00;;;-0.88;100.00
60832;BME280;46665;51.558;-0.448;2024-01-15T01:58:05;100412.31;;;-0.88;100.00
60832;BME280;46665;51.558;-0.448;2024-01-15T02:00:49;100416.66;;;-0.93;100.00
60832;BME280;46665;51.558;-0.448;2024-01-15T02:03:33;100409.09;;;-1.03;100.00
60832;BME280;46665;51.558;-0.448;2024-01-15T02:06:18;100409.72;;;-1.14;100.00
60832;BME280;46665;51.558;-0.448;2024-01-15T02:09:03;100406.06;;;-1.20;100.00
60832;BME280;46665;51.558;-0.448;2024-01-15T02:11:47;100413.88;;;-1.25;100.00
60832;BME280;46665;51.558;-0.448;2024-01-15T02:14:32;100413.47;;;-1.28;100.00
60832;BME280;46665;51.558;-0.448;2024-01-15T02:17:16;100424.97;;;-1.28;100.00
60832;BME280;46665;51.558;-0.448;2024-01-15T02:20:01;100411.84;;;-1.36;100.00
60832;BME280;46665;51.558;-0.448;2024-01-15T02:22:45;100411.84;;;-1.36;100.00
60832;BME280;46665;51.558;-0.448;2024-01-15T02:25:29;100413.09;;;-1.39;100.00
60832;BME280;46665;51.558;-0.448;2024-01-15T02:28:17;100420.06;;;-1.38;100.00
60832;BME280;46665;51.558;-0.448;2024-01-15T02:31:01;100406.94;;;-1.39;100.00
60832;BME280;46665;51.558;-0.448;2024-01-15T02:33:45;100407.75;;;-1.39;100.00
60832;BME280;46665;51.558;-0.448;2024-01-15T02:36:32;100411.84;;;-1.36;100.00
60832;BME280;46665;51.558;-0.448;2024-01-15T02:39:15;100410.84;;;-1.42;100.00
60832;BME280;46665;51.558;-0.448;2024-01-15T02:42:00;100413.91;;;-1.45;100.00
60832;BME280;46665;51.558;-0.448;2024-01-15T02:44:43;100405.09;;;-1.45;100.00
60832;BME280;46665;51.558;-0.448;2024-01-15T02:47:27;100406.31;;;-1.48;100.00
60832;BME280;46665;51.558;-0.448;2024-01-15T02:50:11;100398.31;;;-1.55;100.00
60832;BME280;46665;51.558;-0.448;2024-01-15T02:52:55;100404.69;;;-1.62;100.00
60832;BME280;46665;51.558;-0.448;2024-01-15T02:55:39;100397.91;;;-1.65;100.00
60832;BME280;46665;51.558;-0.448;2024-01-15T02:58:23;100405.91;;;-1.65;100.00
60832;BME280;46665;51.558;-0.448;2024-01-15T03:01:07;100397.09;;;-1.65;100.00
60832;BME280;46665;51.558;-0.448;2024-01-15T03:03:51;100397.91;;;-1.65;100.00
60832;BME280;46665;51.558;-0.448;2024-01-15T03:06:35;100388.47;;;-1.61;100.00
60832;BME280;46665;51.558;-0.448;2024-01-15T03:09:19;100389.91;;;-1.58;100.00
60832;BME280;46665;51.558;-0.448;2024-01-15T03:12:03;100396.06;;;-1.51;100.00
60832;BME280;46665;51.558;-0.448;2024-01-15T03:14:48;100396.69;;;-1.49;100.00
60832;BME280;46665;51.558;-0.448;2024-01-15T03:17:32;100392.16;;;-1.48;100.00
60832;BME280;46665;51.558;-0.448;2024-01-15T03:20:15;100399.75;;;-1.45;100.00
60832;BME280;46665;51.558;-0.448;2024-01-15T03:22:59;100408.19;;;-1.48;100.00
60832;BME280;46665;51.558;-0.448;2024-01-15T03:25:43;100403.66;;;-1.48;100.00
60832;BME280;46665;51.558;-0.448;2024-01-15T03:28:28;100402.22;;;-1.50;100.00
60832;BME280;46665;51.558;-0.448;2024-01-15T03:31:14;100413.50;;;-1.55;100.00
60832;BME280;46665;51.558;-0.448;2024-01-15T03:33:58;100406.97;;;-1.59;100.00
60832;BME280;46665;51.558;-0.448;2024-01-15T03:36:42;100410.22;;;-1.57;100.00
60832;BME280;46665;51.558;-0.448;2024-01-15T03:39:26;100411.25;;;-1.65;100.00
60832;BME280;46665;51.558;-0.448;2024-01-15T03:42:10;100410.25;;;-1.64;100.00
60832;BME280;46665;51.558;-0.448;2024-01-15T03:44:54;100412.91;;;-1.64;100.00
60832;BME280;46665;51.558;-0.448;2024-01-15T03:47:38;100407.78;;;-1.65;100.00
60832;BME280;46665;51.558;-0.448;2024-01-15T03:50:22;100408.00;;;-1.67;100.00
60832;BME280;46665;51.558;-0.448;2024-01-15T03:53:06;100399.38;;;-1.69;100.00
60832;BME280;46665;51.558;-0.448;2024-01-15T03:55:50;100392.78;;;-1.73;100.00
60832;BME280;46665;51.558;-0.448;2024-01-15T03:58:34;100389.31;;;-1.80;100.00
60832;BME280;46665;51.558;-0.448;2024-01-15T04:01:18;100397.75;;;-1.90;100.00
60832;BME280;46665;51.558;-0.448;2024-01-15T04:04:02;100393.84;;;-1.87;100.00
60832;BME280;46665;51.558;-0.448;2024-01-15T04:06:46;100394.47;;;-1.92;100.00
60832;BME280;46665;51.558;-0.448;2024-01-15T04:09:30;100384.78;;;-1.93;100.00
60832;BME280;46665;51.558;-0.448;2024-01-15T04:12:14;100387.88;;;-1.96;100.00
60832;BME280;46665;51.558;-0.448;2024-01-15T04:14:58;100377.63;;;-1.99;100.00
60832;BME280;46665;51.558;-0.448;2024-01-15T04:17:42;100388.09;;;-2.04;100.00
60832;BME280;46665;51.558;-0.448;2024-01-15T04:20:25;100375.56;;;-2.04;100.00
60832;BME280;46665;51.558;-0.448;2024-01-15T04:23:09;100380.06;;;-2.11;100.00
60832;BME280;46665;51.558;-0.448;2024-01-15T04:25:53;100368.41;;;-2.16;100.00
60832;BME280;46665;51.558;-0.448;2024-01-15T04:28:37;100369.22;;;-2.23;100.00
60832;BME280;46665;51.558;-0.448;2024-01-15T04:31:23;100364.28;;;-2.26;100.00
60832;BME280;46665;51.558;-0.448;2024-01-15T04:34:07;100361.41;;;-2.31;100.00
60832;BME280;46665;51.558;-0.448;2024-01-15T04:36:51;100363.88;;;-2.29;100.00
60832;BME280;46665;51.558;-0.448;2024-01-15T04:39:35;100368.16;;;-2.28;100.00
60832;BME280;46665;51.558;-0.448;2024-01-15T04:42:19;100379.88;;;-2.23;100.00
60832;BME280;46665;51.558;-0.448;2024-01-15T04:45:03;100374.94;;;-2.19;100.00
60832;BME280;46665;51.558;-0.448;2024-01-15T04:47:47;100368.81;;;-2.20;100.00
60832;BME280;46665;51.558;-0.448;2024-01-15T04:50:31;100375.16;;;-2.14;100.00
60832;BME280;46665;51.558;-0.448;2024-01-15T04:53:15;100362.25;;;-2.17;100.00
60832;BME280;46665;51.558;-0.448;2024-01-15T04:55:59;100372.06;;;-2.11;100.00
60832;BME280;46665;51.558;-0.448;2024-01-15T04:58:43;100366.75;;;-2.11;100.00
60832;BME280;46665;51.558;-0.448;2024-01-15T05:01:31;100372.06;;;-2.11;100.00
60832;BME280;46665;51.558;-0.448;2024-01-15T05:04:16;100370.03;;;-2.15;100.00
60832;BME280;46665;51.558;-0.448;2024-01-15T05:07:00;100361.63;;;-2.19;100.00
60832;BME280;46665;51.558;-0.448;2024-01-15T05:09:43;100365.94;;;-2.25;100.00
60832;BME280;46665;51.558;-0.448;2024-01-15T05:12:27;100373.13;;;-2.25;100.00
60832;BME280;46665;51.558;-0.448;2024-01-15T05:15:11;100373.13;;;-2.25;100.00
60832;BME280;46665;51.558;-0.448;2024-01-15T05:17:55;100371.44;;;-2.26;100.00
60832;BME280;46665;51.558;-0.448;2024-01-15T05:20:39;100370.44;;;-2.19;100.00
60832;BME280;46665;51.558;-0.448;2024-01-15T05:23:23;100362.22;;;-2.10;100.00
60832;BME280;46665;51.558;-0.448;2024-01-15T05:26:07;100371.06;;;-2.03;100.00
60832;BME280;46665;51.558;-0.448;2024-01-15T05:28:53;100373.72;;;-1.97;100.00
60832;BME280;46665;51.558;-0.448;2024-01-15T05:31:36;100370.03;;;-1.89;100.00
60832;BME280;46665;51.558;-0.448;2024-01-15T05:34:20;100369.63;;;-1.79;100.00
60832;BME280;46665;51.558;-0.448;2024-01-15T05:37:04;100364.91;;;-1.77;100.00
60832;BME280;46665;51.558;-0.448;2024-01-15T05:39:48;100363.44;;;-1.73;100.00
60832;BME280;46665;51.558;-0.448;2024-01-15T05:42:32;100363.44;;;-1.73;100.00
60832;BME280;46665;51.558;-0.448;2024-01-15T05:45:16;100366.31;;;-1.68;100.00
60832;BME280;46665;51.558;-0.448;2024-01-15T05:48:00;100371.66;;;-1.68;100.00
60832;BME280;46665;51.558;-0.448;2024-01-15T05:50:44;100373.50;;;-1.62;100.00
60832;BME280;46665;51.558;-0.448;2024-01-15T05:53:28;100356.25;;;-1.66;100.00
60832;BME280;46665;51.558;-0.448;2024-01-15T05:56:11;100373.47;;;-1.55;100.00
60832;BME280;46665;51.558;-0.448;2024-01-15T05:58:55;100375.53;;;-1.50;100.00
60832;BME280;46665;51.558;-0.448;2024-01-15T06:01:39;100380.88;;;-1.50;100.00
60832;BME280;46665;51.558;-0.448;2024-01-15T06:04:23;100376.97;;;-1.55;100.00
60832;BME280;46665;51.558;-0.448;2024-01-15T06:07:07;100375.34;;;-1.56;100.00
60832;BME280;46665;51.558;-0.448;2024-01-15T06:09:51;100375.94;;;-1.60;100.00
60832;BME280;46665;51.558;-0.448;2024-01-15T06:12:35;100379.66;;;-1.61;100.00
60832;BME280;46665;51.558;-0.448;2024-01-15T06:15:19;100392.19;;;-1.62;100.00
60832;BME280;46665;51.558;-0.448;2024-01-15T06:18:03;100389.91;;;-1.65;100.00
60832;BME280;46665;51.558;-0.448;2024-01-15T06:20:47;100379.47;;;-1.73;100.00
60832;BME280;46665;51.558;-0.448;2024-01-15T06:23:31;100395.47;;;-1.66;100.00
60832;BME280;46665;51.558;-0.448;2024-01-15T06:26:15;100390.75;;;-1.71;100.00
60832;BME280;46665;51.558;-0.448;2024-01-15T06:28:59;100400.38;;;-1.70;100.00
60832;BME280;46665;51.558;-0.448;2024-01-15T06:31:43;100398.56;;;-1.69;100.00
60832;BME280;46665;51.558;-0.448;2024-01-15T06:34:28;100402.03;;;-1.69;100.00
60832;BME280;46665;51.558;-0.448;2024-01-15T06:37:13;100406.97;;;-1.59;100.00
60832;BME280;46665;51.558;-0.448;2024-01-15T06:39:57;100420.91;;;-1.57;100.00
60832;BME280;46665;51.558;-0.448;2024-01-15T06:42:41;100413.31;;;-1.54;100.00
60832;BME280;46665;51.558;-0.448;2024-01-15T06:45:25;100412.50;;;-1.54;100.00
60832;BME280;46665;51.558;-0.448;2024-01-15T06:48:09;100420.50;;;-1.54;100.00
60832;BME280;46665;51.558;-0.448;2024-01-15T06:50:53;100419.47;;;-1.53;100.00
60832;BME280;46665;51.558;-0.448;2024-01-15T06:53:36;100426.03;;;-1.49;100.00
60832;BME280;46665;51.558;-0.448;2024-01-15T06:56:21;100427.47;;;-1.46;100.00
60832;BME280;46665;51.558;-0.448;2024-01-15T06:59:05;100423.16;;;-1.47;100.00
60832;BME280;46665;51.558;-0.448;2024-01-15T07:01:49;100428.72;;;-1.49;100.00
60832;BME280;46665;51.558;-0.448;2024-01-15T07:04:33;100422.53;;;-1.49;100.00
60832;BME280;46665;51.558;-0.448;2024-01-15T07:07:17;100415.16;;;-1.54;100.00
60832;BME280;46665;51.558;-0.448;2024-01-15T07:10:00;100402.22;;;-1.57;100.00
60832;BME280;46665;51.558;-0.448;2024-01-15T07:12:44;100391.53;;;-1.57;100.00
60832;BME280;46665;51.558;-0.448;2024-01-15T07:15:28;100404.25;;;-1.53;100.00
60832;BME280;46665;51.558;-0.448;2024-01-15T07:18:12;100417.00;;;-1.55;100.00
60832;BME280;46665;51.558;-0.448;2024-01-15T07:20:56;100428.50;;;-1.54;100.00
60832;BME280;46665;51.558;-0.448;2024-01-15T07:23:40;100423.16;;;-1.61;100.00
60832;BME280;46665;51.558;-0.448;2024-01-15T07:26:26;100413.94;;;-1.58;100.00
60832;BME280;46665;51.558;-0.448;2024-01-15T07:29:10;100413.72;;;-1.63;100.00
60832;BME280;46665;51.558;-0.448;2024-01-15T07:31:53;100416.41;;;-1.63;100.00
60832;BME280;46665;51.558;-0.448;2024-01-15T07:34:38;100436.50;;;-1.61;100.00
60832;BME280;46665;51.558;-0.448;2024-01-15T07:37:21;100418.88;;;-1.62;100.00
60832;BME280;46665;51.558;-0.448;2024-01-15T07:40:07;100433.44;;;-1.64;100.00
60832;BME280;46665;51.558;-0.448;2024-01-15T07:42:52;100426.25;;;-1.70;100.00
60832;BME280;46665;51.558;-0.448;2024-01-15T07:45:36;100437.72;;;-1.70;100.00
60832;BME280;46665;51.558;-0.448;2024-01-15T07:48:20;100435.47;;;-1.73;100.00
60832;BME280;46665;51.558;-0.448;2024-01-15T07:51:04;100434.47;;;-1.72;100.00
60832;BME280;46665;51.558;-0.448;2024-01-15T07:53:48;100436.09;;;-1.71;100.00
60832;BME280;46665;51.558;-0.448;2024-01-15T07:56:33;100441.44;;;-1.71;100.00
60832;BME280;46665;51.558;-0.448;2024-01-15T07:59:16;100437.34;;;-1.73;100.00
60832;BME280;46665;51.558;-0.448;2024-01-15T08:02:02;100433.66;;;-1.79;100.00
60832;BME280;46665;51.558;-0.448;2024-01-15T08:04:46;100430.56;;;-1.83;100.00
60832;BME280;46665;51.558;-0.448;2024-01-15T08:07:30;100432.81;;;-1.86;100.00
60832;BME280;46665;51.558;-0.448;2024-01-15T08:10:14;100435.69;;;-1.88;100.00
60832;BME280;46665;51.558;-0.448;2024-01-15T08:12:58;100432.81;;;-1.86;100.00
60832;BME280;46665;51.558;-0.448;2024-01-15T08:15:42;100436.31;;;-1.86;100.00
60832;BME280;46665;51.558;-0.448;2024-01-15T08:18:26;100425.44;;;-1.91;100.00
60832;BME280;46665;51.558;-0.448;2024-01-15T08:21:10;100417.03;;;-1.94;100.00
60832;BME280;46665;51.558;-0.448;2024-01-15T08:23:54;100423.38;;;-1.96;100.00
60832;BME280;46665;51.558;-0.448;2024-01-15T08:26:37;100432.59;;;-1.98;100.00
60832;BME280;46665;51.558;-0.448;2024-01-15T08:29:21;100437.50;;;-1.95;100.00
60832;BME280;46665;51.558;-0.448;2024-01-15T08:32:05;100443.06;;;-1.97;100.00
60832;BME280;46665;51.558;-0.448;2024-01-15T08:34:49;100448.00;;;-1.93;100.00
60832;BME280;46665;51.558;-0.448;2024-01-15T08:37:36;100459.28;;;-1.91;100.00
60832;BME280;46665;51.558;-0.448;2024-01-15T08:40:21;100477.53;;;-1.88;100.00
60832;BME280;46665;51.558;-0.448;2024-01-15T08:43:05;100488.63;;;-1.85;100.00
60832;BME280;46665;51.558;-0.448;2024-01-15T08:45:50;100488.22;;;-1.82;100.00
60832;BME280;46665;51.558;-0.448;2024-01-15T08:48:34;100504.00;;;-1.80;100.00
60832;BME280;46665;51.558;-0.448;2024-01-15T08:51:18;100503.63;;;-1.77;100.00
60832;BME280;46665;51.558;-0.448;2024-01-15T08:54:02;100496.84;;;-1.73;100.00
60832;BME280;46665;51.558;-0.448;2024-01-15T08:56:47;100502.38;;;-1.68;100.00
60832;BME280;46665;51.558;-0.448;2024-01-15T08:59:31;100501.38;;;-1.67;100.00
60832;BME280;46665;51.558;-0.448;2024-01-15T09:02:16;100514.50;;;-1.65;100.00
60832;BME280;46665;51.558;-0.448;2024-01-15T09:05:00;100518.19;;;-1.60;100.00
60832;BME280;46665;51.558;-0.448;2024-01-15T09:07:44;100510.81;;;-1.58;100.00
60832;BME280;46665;51.558;-0.448;2024-01-15T09:10:29;100522.31;;;-1.50;100.00
60832;BME280;46665;51.558;-0.448;2024-01-15T09:13:13;100522.09;;;-1.42;100.00
60832;BME280;46665;51.558;-0.448;2024-01-15T09:15:58;100518.41;;;-1.35;100.00
60832;BME280;46665;51.558;-0.448;2024-01-15T09:18:42;100534.63;;;-1.29;100.00
60832;BME280;46665;51.558;-0.448;2024-01-15T09:21:26;100536.25;;;-1.22;100.00
60832;BME280;46665;51.558;-0.448;2024-01-15T09:24:10;100531.75;;;-1.15;100.00
60832;BME280;46665;51.558;-0.448;2024-01-15T09:26:54;100540.97;;;-1.04;100.00
60832;BME280;46665;51.558;-0.448;2024-01-15T09:29:39;100544.47;;;-0.97;100.00
60832;BME280;46665;51.558;-0.448;2024-01-15T09:32:23;100534.41;;;-0.88;100.00
60832;BME280;46665;51.558;-0.448;2024-01-15T09:35:08;100539.94;;;-0.83;100.00
60832;BME280;46665;51.558;-0.448;2024-01-15T09:37:52;100534.56;;;-0.76;100.00
60832;BME280;46665;51.558;-0.448;2024-01-15T09:40:38;100543.38;;;-0.69;100.00
60832;BME280;46665;51.558;-0.448;2024-01-15T09:43:22;100541.94;;;-0.65;100.00
60832;BME280;46665;51.558;-0.448;2024-01-15T09:46:06;100546.88;;;-0.55;100.00
60832;BME280;46665;51.558;-0.448;2024-01-15T09:48:50;100545.19;;;-0.50;100.00
60832;BME280;46665;51.558;-0.448;2024-01-15T09:51:34;100552.78;;;-0.40;100.00
60832;BME280;46665;51.558;-0.448;2024-01-15T09:54:19;100550.31;;;-0.41;100.00
60832;BME280;46665;51.558;-0.448;2024-01-15T09:57:05;100553.16;;;-0.30;100.00
60832;BME280;46665;51.558;-0.448;2024-01-15T09:59:51;100549.22;;;-0.27;100.00
60832;BME280;46665;51.558;-0.448;2024-01-15T10:02:36;100541.81;;;-0.25;100.00
60832;BME280;46665;51.558;-0.448;2024-01-15T10:05:20;100544.06;;;-0.22;100.00
60832;BME280;46665;51.558;-0.448;2024-01-15T10:08:05;100550.63;;;-0.18;100.00
60832;BME280;46665;51.558;-0.448;2024-01-15T10:10:49;100547.53;;;-0.15;100.00
60832;BME280;46665;51.558;-0.448;2024-01-15T10:13:33;100562.09;;;-0.11;100.00
60832;BME280;46665;51.558;-0.448;2024-01-15T10:16:20;100571.75;;;-0.03;100.00
60832;BME280;46665;51.558;-0.448;2024-01-15T10:19:05;100567.81;;;-0.01;99.50
60832;BME280;46665;51.558;-0.448;2024-01-15T10:21:50;100569.25;;;0.02;98.99
60832;BME280;46665;51.558;-0.448;2024-01-15T10:24:35;100572.53;;;0.04;96.69
60832;BME280;46665;51.558;-0.448;2024-01-15T10:27:19;100576.22;;;0.10;98.03
60832;BME280;46665;51.558;-0.448;2024-01-15T10:30:04;100573.13;;;0.13;99.11
60832;BME280;46665;51.558;-0.448;2024-01-15T10:32:57;100567.72;;;0.19;97.71
60832;BME280;46665;51.558;-0.448;2024-01-15T10:35:42;100577.63;;;0.19;94.34
60832;BME280;46665;51.558;-0.448;2024-01-15T10:38:26;100572.88;;;0.21;96.68
60832;BME280;46665;51.558;-0.448;2024-01-15T10:41:11;100578.59;;;0.25;95.05
60832;BME280;46665;51.558;-0.448;2024-01-15T10:43:55;100569.75;;;0.24;93.07
60832;BME280;46665;51.558;-0.448;2024-01-15T10:46:41;100569.56;;;0.26;92.49
60832;BME280;46665;51.558;-0.448;2024-01-15T10:49:25;100568.69;;;0.32;93.60
60832;BME280;46665;51.558;-0.448;2024-01-15T10:52:10;100566.22;;;0.30;87.33
60832;BME280;46665;51.558;-0.448;2024-01-15T10:54:56;100579.56;;;0.37;88.68
60832;BME280;46665;51.558;-0.448;2024-01-15T10:57:44;100597.44;;;0.43;88.48
60832;BME280;46665;51.558;-0.448;2024-01-15T11:00:29;100584.66;;;0.45;84.27
60832;BME280;46665;51.558;-0.448;2024-01-15T11:03:14;100589.97;;;0.52;83.22
60832;BME280;46665;51.558;-0.448;2024-01-15T11:05:59;100583.81;;;0.51;82.19
60832;BME280;46665;51.558;-0.448;2024-01-15T11:08:43;100568.75;;;0.50;82.26
60832;BME280;46665;51.558;-0.448;2024-01-15T11:11:28;100581.69;;;0.60;83.57
60832;BME280;46665;51.558;-0.448;2024-01-15T11:14:41;100581.69;;;0.60;85.48
60832;BME280;46665;51.558;-0.448;2024-01-15T11:18:01;100597.09;;;0.64;82.85
60832;BME280;46665;51.558;-0.448;2024-01-15T11:24:01;100592.72;;;0.70;81.91
60832;BME280;46665;51.558;-0.448;2024-01-15T11:26:46;100601.53;;;0.77;83.99
60832;BME280;46665;51.558;-0.448;2024-01-15T11:29:40;100605.44;;;0.81;80.46
60832;BME280;46665;51.558;-0.448;2024-01-15T11:32:33;100602.09;;;0.86;81.80
60832;BME280;46665;51.558;-0.448;2024-01-15T11:35:17;100591.72;;;0.96;83.42
60832;BME280;46665;51.558;-0.448;2024-01-15T11:38:03;100596.41;;;1.01;81.92
60832;BME280;46665;51.558;-0.448;2024-01-15T11:40:47;100599.69;;;1.03;81.22
60832;BME280;46665;51.558;-0.448;2024-01-15T11:43:32;100591.16;;;1.13;83.12
60832;BME280;46665;51.558;-0.448;2024-01-15T11:46:17;100597.94;;;1.15;80.39
60832;BME280;46665;51.558;-0.448;2024-01-15T11:49:03;100602.66;;;1.20;79.65
60832;BME280;46665;51.558;-0.448;2024-01-15T11:51:49;100612.59;;;1.13;77.12
60832;BME280;46665;51.558;-0.448;2024-01-15T11:54:38;100608.47;;;1.17;77.10
60832;BME280;46665;51.558;-0.448;2024-01-15T11:57:47;100609.63;;;1.21;78.44
60832;BME280;46665;51.558;-0.448;2024-01-15T12:00:33;100612.91;;;1.23;78.52
60832;BME280;46665;51.558;-0.448;2024-01-15T12:03:17;100622.19;;;1.27;78.24
60832;BME280;46665;51.558;-0.448;2024-01-15T12:06:01;100629.94;;;1.35;78.00
60832;BME280;46665;51.558;-0.448;2024-01-15T12:08:45;100627.25;;;1.35;76.31
60832;BME280;46665;51.558;-0.448;2024-01-15T12:11:30;100623.47;;;1.43;77.62
60832;BME280;46665;51.558;-0.448;2024-01-15T12:14:14;100628.69;;;1.56;78.59
60832;BME280;46665;51.558;-0.448;2024-01-15T12:16:58;100632.44;;;1.55;75.47
60832;BME280;46665;51.558;-0.448;2024-01-15T12:19:43;100631.47;;;1.49;73.96
60832;BME280;46665;51.558;-0.448;2024-01-15T12:22:27;100624.22;;;1.50;73.34
60832;BME280;46665;51.558;-0.448;2024-01-15T12:25:11;100624.75;;;1.59;74.92
60832;BME280;46665;51.558;-0.448;2024-01-15T12:27:56;100625.06;;;1.69;73.56
60832;BME280;46665;51.558;-0.448;2024-01-15T12:30:40;100614.97;;;1.64;72.17
60832;BME280;46665;51.558;-0.448;2024-01-15T12:33:24;100622.38;;;1.69;72.86
60832;BME280;46665;51.558;-0.448;2024-01-15T12:36:08;100626.56;;;1.65;71.81
60832;BME280;46665;51.558;-0.448;2024-01-15T12:38:52;100631.91;;;1.65;71.49
60832;BME280;46665;51.558;-0.448;2024-01-15T12:41:36;100631.06;;;1.64;70.17
60832;BME280;46665;51.558;-0.448;2024-01-15T12:44:20;100627.38;;;1.65;70.76
60832;BME280;46665;51.558;-0.448;2024-01-15T12:47:05;100637.69;;;1.62;68.47
60832;BME280;46665;51.558;-0.448;2024-01-15T12:49:53;100633.09;;;1.69;69.07
60832;BME280;46665;51.558;-0.448;2024-01-15T12:52:40;100622.97;;;1.71;68.69
60832;BME280;46665;51.558;-0.448;2024-01-15T12:55:25;100624.53;;;1.79;69.77
60832;BME280;46665;51.558;-0.448;2024-01-15T12:58:09;100623.41;;;1.68;66.77
60832;BME280;46665;51.558;-0.448;2024-01-15T13:00:54;100622.22;;;1.64;68.72
60832;BME280;46665;51.558;-0.448;2024-01-15T13:03:38;100627.28;;;1.72;67.23
60832;BME280;46665;51.558;-0.448;2024-01-15T13:06:22;100628.50;;;1.76;67.38
60832;BME280;46665;51.558;-0.448;2024-01-15T13:09:06;100627.16;;;1.85;69.16
60832;BME280;46665;51.558;-0.448;2024-01-15T13:11:50;100623.34;;;1.93;68.31
60832;BME280;46665;51.558;-0.448;2024-01-15T13:14:34;100627.34;;;2.02;69.10
60832;BME280;46665;51.558;-0.448;2024-01-15T13:17:19;100621.31;;;2.07;68.59
60832;BME280;46665;51.558;-0.448;2024-01-15T13:20:05;100609.16;;;2.04;67.06
60832;BME280;46665;51.558;-0.448;2024-01-15T13:22:49;100625.19;;;2.11;64.96
60832;BME280;46665;51.558;-0.448;2024-01-15T13:25:33;100625.06;;;2.06;64.68
60832;BME280;46665;51.558;-0.448;2024-01-15T13:28:19;100621.56;;;2.05;66.19
60832;BME280;46665;51.558;-0.448;2024-01-15T13:31:05;100621.97;;;2.02;64.08
60832;BME280;46665;51.558;-0.448;2024-01-15T13:33:49;100609.56;;;1.71;63.81
60832;BME280;46665;51.558;-0.448;2024-01-15T13:36:33;100640.19;;;1.82;65.28
60832;BME280;46665;51.558;-0.448;2024-01-15T13:39:17;100614.47;;;1.74;65.23
60832;BME280;46665;51.558;-0.448;2024-01-15T13:42:03;100625.19;;;1.74;66.61
60832;BME280;46665;51.558;-0.448;2024-01-15T13:44:48;100623.63;;;1.66;66.57
60832;BME280;46665;51.558;-0.448;2024-01-15T13:47:32;100625.13;;;1.62;67.14
60832;BME280;46665;51.558;-0.448;2024-01-15T13:50:16;100621.19;;;1.65;69.21
60832;BME280;46665;51.558;-0.448;2024-01-15T13:53:02;100615.59;;;1.66;66.85
60832;BME280;46665;51.558;-0.448;2024-01-15T13:55:47;100614.56;;;1.67;66.70
60832;BME280;46665;51.558;-0.448;2024-01-15T13:58:31;100603.38;;;1.70;67.85
60832;BME280;46665;51.558;-0.448;2024-01-15T14:01:16;100610.38;;;1.71;66.20
60832;BME280;46665;51.558;-0.448;2024-01-15T14:04:03;100613.97;;;1.65;66.07
60832;BME280;46665;51.558;-0.448;2024-01-15T14:06:47;100611.03;;;1.67;65.86